createdAt,value
2018-09-11T00:00:32.987Z,94.07
2018-09-11T00:01:32.986Z,93.40
2018-09-11T00:02:33.017Z,93.88
2018-09-11T00:03:32.985Z,93.98
2018-09-11T00:04:32.991Z,94.35
2018-09-11T00:05:32.981Z,93.88
2018-09-11T00:06:33.007Z,93.98
2018-09-11T00:07:33.026Z,93.98
2018-09-11T00:08:32.988Z,93.98
2018-09-11T00:09:32.990Z,93.88
2018-09-11T00:10:32.995Z,93.98
2018-09-11T00:11:33.027Z,93.78
2018-09-11T00:12:33.028Z,93.59
2018-09-11T00:13:33.015Z,93.40
2018-09-11T00:14:32.996Z,93.59
2018-09-11T00:15:32.992Z,92.92
2018-09-11T00:16:32.995Z,93.11
2018-09-11T00:17:33.032Z,93.02
2018-09-11T00:18:32.996Z,93.30
2018-09-11T00:19:32.993Z,93.30
2018-09-11T00:20:32.997Z,93.59
2018-09-11T00:21:32.998Z,93.30
2018-09-11T00:22:33.033Z,93.11
2018-09-11T00:23:33.001Z,92.92
2018-09-11T00:24:33.003Z,93.11
2018-09-11T00:25:33.001Z,92.73
2018-09-11T00:26:33.038Z,93.21
2018-09-11T00:27:33.018Z,92.73
2018-09-11T00:28:33.002Z,92.68
2018-09-11T00:29:33.003Z,92.73
2018-09-11T00:30:33.019Z,93.30
2018-09-11T00:31:33.044Z,93.02
2018-09-11T00:32:33.008Z,93.30
2018-09-11T00:33:33.009Z,93.11
2018-09-11T00:34:33.014Z,93.26
2018-09-11T00:35:33.009Z,92.92
2018-09-11T00:36:33.047Z,92.54
2018-09-11T00:37:33.008Z,92.54
2018-09-11T00:38:33.015Z,92.44
2018-09-11T00:39:33.013Z,92.44
2018-09-11T00:40:33.017Z,92.97
2018-09-11T00:41:33.061Z,93.54
2018-09-11T00:42:33.012Z,92.68
2018-09-11T00:43:33.050Z,92.63
2018-09-11T00:44:33.018Z,92.49
2018-09-11T00:45:33.014Z,92.92
2018-09-11T00:46:33.018Z,92.39
2018-09-11T00:47:33.053Z,92.20
2018-09-11T00:48:33.018Z,92.10
2018-09-11T00:49:33.022Z,92.58
2018-09-11T00:50:33.018Z,92.68
2018-09-11T00:51:33.041Z,92.68
2018-09-11T00:52:33.055Z,91.72
2018-09-11T00:53:33.023Z,92.25
2018-09-11T00:54:33.024Z,92.39
2018-09-11T00:55:33.020Z,92.20
2018-09-11T00:56:33.020Z,92.35
2018-09-11T00:57:33.061Z,91.82
2018-09-11T00:58:33.040Z,91.43
2018-09-11T00:59:33.025Z,91.72
2018-09-11T01:00:33.026Z,91.82
2018-09-11T01:01:33.023Z,91.63
2018-09-11T01:02:33.063Z,92.58
2018-09-11T01:03:33.022Z,92.39
2018-09-11T01:04:33.048Z,92.44
2018-09-11T01:05:33.039Z,92.54
2018-09-11T01:06:33.029Z,92.82
2018-09-11T01:07:33.067Z,92.92
2018-09-11T01:08:33.038Z,93.98
2018-09-11T01:09:33.030Z,93.59
2018-09-11T01:10:33.030Z,93.21
2018-09-11T01:11:33.031Z,93.98
2018-09-11T01:12:33.081Z,94.17
2018-09-11T01:13:33.032Z,94.55
2018-09-11T01:14:33.035Z,94.17
2018-09-11T01:15:33.039Z,95.03
2018-09-11T01:16:33.033Z,94.84
2018-09-11T01:17:33.072Z,95.31
2018-09-11T01:18:33.035Z,95.41
2018-09-11T01:19:33.056Z,95.75
2018-09-11T01:20:33.033Z,94.64
2018-09-11T01:21:33.038Z,95.36
2018-09-11T01:22:33.085Z,95.70
2018-09-11T01:23:33.041Z,95.03
2018-09-11T01:24:33.041Z,95.56
2018-09-11T01:25:33.042Z,95.17
2018-09-11T01:26:33.042Z,94.60
2018-09-11T01:27:33.077Z,95.84
2018-09-11T01:28:33.039Z,95.84
2018-09-11T01:29:33.071Z,95.27
2018-09-11T01:30:33.040Z,95.36
2018-09-11T01:31:33.047Z,95.75
2018-09-11T01:32:33.083Z,95.36
2018-09-11T01:33:33.044Z,95.27
2018-09-11T01:34:33.078Z,95.65
2018-09-11T01:35:33.051Z,95.46
2018-09-11T01:36:33.044Z,95.65
2018-09-11T01:37:33.048Z,95.94
2018-09-11T01:38:33.084Z,95.65
2018-09-11T01:39:33.053Z,95.94
2018-09-11T01:40:33.053Z,96.03
2018-09-11T01:41:33.047Z,96.42
2018-09-11T01:42:33.085Z,96.32
2018-09-11T01:43:33.053Z,96.80
2018-09-11T01:44:33.050Z,97.28
2018-09-11T01:45:33.050Z,97.47
2018-09-11T01:46:33.057Z,97.52
2018-09-11T01:47:33.090Z,97.61
2018-09-11T01:48:33.051Z,97.71
2018-09-11T01:49:33.087Z,97.42
2018-09-11T01:50:33.075Z,98.28
2018-09-11T01:51:33.051Z,98.19
2018-09-11T01:52:33.055Z,97.42
2018-09-11T01:53:33.089Z,97.04
2018-09-11T01:54:33.052Z,97.42
2018-09-11T01:55:33.057Z,97.04
2018-09-11T01:56:33.055Z,96.89
2018-09-11T01:57:33.070Z,96.13
2018-09-11T01:58:33.092Z,96.03
2018-09-11T01:59:33.056Z,96.13
2018-09-11T02:00:33.056Z,96.32
2018-09-11T02:01:33.052Z,96.32
2018-09-11T02:02:33.057Z,95.84
2018-09-11T02:03:33.097Z,96.70
2018-09-11T02:04:33.060Z,97.23
2018-09-11T02:05:33.056Z,97.52
2018-09-11T02:06:33.058Z,98.28
2018-09-11T02:07:33.080Z,99.43
2018-09-11T02:08:33.091Z,99.99
2018-09-11T02:09:33.099Z,99.99
2018-09-11T02:10:33.058Z,99.99
2018-09-11T02:11:33.058Z,99.99
2018-09-11T02:12:33.061Z,99.99
2018-09-11T02:13:33.099Z,99.99
2018-09-11T02:14:33.067Z,99.99
2018-09-11T02:15:33.055Z,99.99
2018-09-11T02:16:33.064Z,99.99
2018-09-11T02:17:33.058Z,99.99
2018-09-11T02:18:33.095Z,99.99
2018-09-11T02:19:33.102Z,99.99
2018-09-11T02:20:33.063Z,99.99
2018-09-11T02:21:33.073Z,99.99
2018-09-11T02:22:33.061Z,99.99
2018-09-11T02:23:33.062Z,99.99
2018-09-11T02:24:33.117Z,99.99
2018-09-11T02:25:33.058Z,99.99
2018-09-11T02:26:33.070Z,99.99
2018-09-11T02:27:33.061Z,99.99
2018-09-11T02:28:33.084Z,99.99
2018-09-11T02:29:33.101Z,99.99
2018-09-11T02:30:33.071Z,99.99
2018-09-11T02:31:33.062Z,99.99
2018-09-11T02:32:33.063Z,99.99
2018-09-11T02:33:33.063Z,99.99
2018-09-11T02:34:33.116Z,99.99
2018-09-11T02:35:33.137Z,99.99
2018-09-11T02:36:33.066Z,99.99
2018-09-11T02:37:33.063Z,99.99
2018-09-11T02:38:33.073Z,99.99
2018-09-11T02:39:33.064Z,99.99
2018-09-11T02:40:33.096Z,99.99
2018-09-11T02:41:33.065Z,99.99
2018-09-11T02:42:33.068Z,99.99
2018-09-11T02:43:33.065Z,99.99
2018-09-11T02:44:33.066Z,99.99
2018-09-11T02:45:33.136Z,99.99
2018-09-11T02:46:33.061Z,99.99
2018-09-11T02:47:33.062Z,99.99
2018-09-11T02:48:33.067Z,99.99
2018-09-11T02:49:33.058Z,99.99
2018-09-11T02:50:33.058Z,99.99
2018-09-11T02:51:33.098Z,99.99
2018-09-11T02:52:33.057Z,99.99
2018-09-11T02:53:33.062Z,99.99
2018-09-11T02:54:33.059Z,99.99
2018-09-11T02:55:33.106Z,99.99
2018-09-11T02:56:33.062Z,99.99
2018-09-11T02:57:33.059Z,99.99
2018-09-11T02:58:33.060Z,99.99
2018-09-11T02:59:33.077Z,99.99
2018-09-11T03:00:33.095Z,99.99
2018-09-11T03:01:54.103Z,99.99
2018-09-11T03:02:33.079Z,99.99
2018-09-11T03:03:33.057Z,99.99
2018-09-11T03:04:33.069Z,99.99
2018-09-11T03:05:33.056Z,99.99
2018-09-11T03:06:33.097Z,99.99
2018-09-11T03:07:33.056Z,99.99
2018-09-11T03:08:33.056Z,99.99
2018-09-11T03:09:33.057Z,99.99
2018-09-11T03:10:33.089Z,99.99
2018-09-11T03:11:33.058Z,99.99
2018-09-11T03:12:33.094Z,99.99
2018-09-11T03:13:33.054Z,99.99
2018-09-11T03:14:33.050Z,99.99
2018-09-11T03:15:33.058Z,99.99
2018-09-11T03:16:33.089Z,99.99
2018-09-11T03:17:33.055Z,99.99
2018-09-11T03:18:33.056Z,99.99
2018-09-11T03:19:33.059Z,99.99
2018-09-11T03:20:33.088Z,99.99
2018-09-11T03:21:33.054Z,99.99
2018-09-11T03:22:33.093Z,99.99
2018-09-11T03:23:33.048Z,99.99
2018-09-11T03:24:33.051Z,99.99
2018-09-11T03:25:33.044Z,99.99
2018-09-11T03:26:33.056Z,99.99
2018-09-11T03:27:33.089Z,99.99
2018-09-11T03:28:33.053Z,99.99
2018-09-11T03:29:33.076Z,99.99
2018-09-11T03:30:33.105Z,99.99
2018-09-11T03:31:33.049Z,99.99
2018-09-11T03:32:33.045Z,99.99
2018-09-11T03:33:33.085Z,99.99
2018-09-11T03:34:33.041Z,99.99
2018-09-11T03:35:33.045Z,99.99
2018-09-11T03:36:33.044Z,99.99
2018-09-11T03:37:33.038Z,99.99
2018-09-11T03:38:33.083Z,99.99
2018-09-11T03:39:33.046Z,99.99
2018-09-11T03:40:33.054Z,99.99
2018-09-11T03:41:33.038Z,99.99
2018-09-11T03:42:33.043Z,99.99
2018-09-11T03:43:33.075Z,99.99
2018-09-11T03:44:33.040Z,99.99
2018-09-11T03:45:33.074Z,99.99
2018-09-11T03:46:33.037Z,99.99
2018-09-11T03:47:33.059Z,99.99
2018-09-11T03:48:33.040Z,99.99
2018-09-11T03:49:33.072Z,99.99
2018-09-11T03:50:33.036Z,99.99
2018-09-11T03:51:33.033Z,99.99
2018-09-11T03:52:33.032Z,99.99
2018-09-11T03:53:33.036Z,99.99
2018-09-11T03:54:33.093Z,99.99
2018-09-11T03:55:33.025Z,99.99
2018-09-11T03:56:33.025Z,99.99
2018-09-11T03:57:33.046Z,99.99
2018-09-11T03:58:33.035Z,99.99
2018-09-11T03:59:33.081Z,99.99
2018-09-11T04:00:33.031Z,99.99
2018-09-11T04:01:33.040Z,99.99
2018-09-11T04:02:33.026Z,99.99
2018-09-11T04:03:33.023Z,99.99
2018-09-11T04:04:33.081Z,99.99
2018-09-11T04:05:33.109Z,99.99
2018-09-11T04:06:33.023Z,99.99
2018-09-11T04:07:33.027Z,99.99
2018-09-11T04:08:33.025Z,99.99
2018-09-11T04:09:33.023Z,99.99
2018-09-11T04:10:33.063Z,99.99
2018-09-11T04:11:33.031Z,99.99
2018-09-11T04:12:33.027Z,99.99
2018-09-11T04:13:33.018Z,99.99
2018-09-11T04:14:33.021Z,99.99
2018-09-11T04:15:33.053Z,99.99
2018-09-11T04:16:33.015Z,99.99
2018-09-11T04:17:33.014Z,99.99
2018-09-11T04:18:33.019Z,99.99
2018-09-11T04:19:33.018Z,99.99
2018-09-11T04:20:33.054Z,99.99
2018-09-11T04:21:33.062Z,99.99
2018-09-11T04:22:33.010Z,99.99
2018-09-11T04:23:33.013Z,99.99
2018-09-11T04:24:33.010Z,99.99
2018-09-11T04:25:33.071Z,99.99
2018-09-11T04:26:33.020Z,99.99
2018-09-11T04:27:33.013Z,99.99
2018-09-11T04:28:33.010Z,99.99
2018-09-11T04:29:33.013Z,99.99
2018-09-11T04:30:33.046Z,99.99
2018-09-11T04:31:33.044Z,99.99
2018-09-11T04:32:33.009Z,99.99
2018-09-11T04:33:33.017Z,99.99
2018-09-11T04:34:33.007Z,99.99
2018-09-11T04:35:33.025Z,99.99
2018-09-11T04:36:33.125Z,99.99
2018-09-11T04:37:33.012Z,99.99
2018-09-11T04:38:33.009Z,99.99
2018-09-11T04:39:33.008Z,99.99
2018-09-11T04:40:33.015Z,99.99
2018-09-11T04:41:33.044Z,99.99
2018-09-11T04:42:33.026Z,99.99
2018-09-11T04:43:33.002Z,99.99
2018-09-11T04:44:33.006Z,99.99
2018-09-11T04:45:33.005Z,99.99
2018-09-11T04:46:33.037Z,99.99
2018-09-11T04:47:33.006Z,99.99
2018-09-11T04:48:33.006Z,99.99
2018-09-11T04:49:33.009Z,99.99
2018-09-11T04:50:33.002Z,99.99
2018-09-11T04:51:33.035Z,99.99
2018-09-11T04:52:33.016Z,99.99
2018-09-11T04:53:32.999Z,99.99
2018-09-11T04:54:33.000Z,99.99
2018-09-11T04:55:32.998Z,99.99
2018-09-11T04:56:33.033Z,99.99
2018-09-11T04:57:33.004Z,99.99
2018-09-11T04:58:32.999Z,99.99
2018-09-11T04:59:32.999Z,99.99
2018-09-11T05:00:32.997Z,99.99
2018-09-11T05:01:32.997Z,99.99
2018-09-11T05:02:33.036Z,99.99
2018-09-11T05:03:33.026Z,99.99
2018-09-11T05:04:33.591Z,99.99
2018-09-11T05:05:32.996Z,99.99
2018-09-11T05:06:33.008Z,99.99
2018-09-11T05:07:33.035Z,99.99
2018-09-11T05:08:32.993Z,99.99
2018-09-11T05:09:32.997Z,99.99
2018-09-11T05:10:32.994Z,99.99
2018-09-11T05:11:33.001Z,99.99
2018-09-11T05:12:33.036Z,99.99
2018-09-11T05:13:33.025Z,99.99
2018-09-11T05:14:32.996Z,99.99
2018-09-11T05:15:32.992Z,99.99
2018-09-11T05:16:33.035Z,99.99
2018-09-11T05:17:32.997Z,99.99
2018-09-11T05:18:32.994Z,99.99
2018-09-11T05:19:32.996Z,99.99
2018-09-11T05:20:32.997Z,99.99
2018-09-11T05:21:33.028Z,99.99
2018-09-11T05:22:32.994Z,99.99
2018-09-11T05:23:33.004Z,99.99
2018-09-11T05:24:33.047Z,99.99
2018-09-11T05:25:33.000Z,99.99
2018-09-11T05:26:33.031Z,99.99
2018-09-11T05:27:33.036Z,99.99
2018-09-11T05:28:32.989Z,99.99
2018-09-11T05:29:32.993Z,99.99
2018-09-11T05:30:32.995Z,99.99
2018-09-11T05:31:33.029Z,99.99
2018-09-11T05:32:33.039Z,99.99
2018-09-11T05:33:32.994Z,99.99
2018-09-11T05:34:33.015Z,99.99
2018-09-11T05:35:32.989Z,99.99
2018-09-11T05:36:32.998Z,99.99
2018-09-11T05:37:33.051Z,99.99
2018-09-11T05:38:32.989Z,99.99
2018-09-11T05:39:32.991Z,99.99
2018-09-11T05:40:32.999Z,99.99
2018-09-11T05:41:33.036Z,99.99
2018-09-11T05:42:32.996Z,99.99
2018-09-11T05:43:32.992Z,99.99
2018-09-11T05:44:33.016Z,99.99
2018-09-11T05:45:32.998Z,99.99
2018-09-11T05:46:33.063Z,99.99
2018-09-11T05:47:32.993Z,99.38
2018-09-11T05:48:32.997Z,98.71
2018-09-11T05:49:32.993Z,99.00
2018-09-11T05:50:32.996Z,99.53
2018-09-11T05:51:33.011Z,98.19
2018-09-11T05:52:33.041Z,97.90
2018-09-11T05:53:32.997Z,99.15
2018-09-11T05:54:32.997Z,99.63
2018-09-11T05:55:32.994Z,99.15
2018-09-11T05:56:33.037Z,99.05
2018-09-11T05:57:33.005Z,98.76
2018-09-11T05:58:33.037Z,99.68
2018-09-11T05:59:32.999Z,98.24
2018-09-11T06:00:32.998Z,96.56
2018-09-11T06:01:33.035Z,94.40
2018-09-11T06:02:33.004Z,92.72
2018-09-11T06:03:33.002Z,91.86
2018-09-11T06:04:33.000Z,92.53
2018-09-11T06:05:33.011Z,90.90
2018-09-11T06:06:33.044Z,91.04
2018-09-11T06:07:33.003Z,88.54
2018-09-11T06:08:33.004Z,88.93
2018-09-11T06:09:33.010Z,90.17
2018-09-11T06:10:33.018Z,89.64
2018-09-11T06:11:33.051Z,88.87
2018-09-11T06:12:33.014Z,88.82
2018-09-11T06:13:33.022Z,87.19
2018-09-11T06:14:33.018Z,85.88
2018-09-11T06:15:33.015Z,85.69
2018-09-11T06:16:33.057Z,84.97
2018-09-11T06:17:33.021Z,84.23
2018-09-11T06:18:33.020Z,83.95
2018-09-11T06:19:33.016Z,82.64
2018-09-11T06:20:33.031Z,81.01
2018-09-11T06:21:33.064Z,80.91
2018-09-11T06:22:33.042Z,80.18
2018-09-11T06:23:33.032Z,78.92
2018-09-11T06:24:33.030Z,78.09
2018-09-11T06:25:33.036Z,77.51
2018-09-11T06:26:33.096Z,76.78
2018-09-11T06:27:33.040Z,75.62
2018-09-11T06:28:33.041Z,75.14
2018-09-11T06:29:33.065Z,74.76
2018-09-11T06:30:33.047Z,74.47
2018-09-11T06:31:33.091Z,73.73
2018-09-11T06:32:33.055Z,74.89
2018-09-11T06:33:33.056Z,73.83
2018-09-11T06:34:33.055Z,73.48
2018-09-11T06:35:33.134Z,72.61
2018-09-11T06:36:33.124Z,72.52
2018-09-11T06:37:33.068Z,73.09
2018-09-11T06:38:33.073Z,71.84
2018-09-11T06:39:33.078Z,72.52
2018-09-11T06:40:33.083Z,72.42
2018-09-11T06:41:33.123Z,72.42
2018-09-11T06:42:33.089Z,72.58
2018-09-11T06:43:33.102Z,73.06
2018-09-11T06:44:34.012Z,72.09
2018-09-11T06:45:33.104Z,72.58
2018-09-11T06:46:33.152Z,72.77
2018-09-11T06:47:33.108Z,73.44
2018-09-11T06:48:33.124Z,73.67
2018-09-11T06:49:33.115Z,73.06
2018-09-11T06:50:33.126Z,72.90
2018-09-11T06:51:33.162Z,72.52
2018-09-11T06:52:33.127Z,72.32
2018-09-11T06:53:33.131Z,71.78
2018-09-11T06:54:33.196Z,71.97
2018-09-11T06:55:33.153Z,70.84
2018-09-11T06:56:33.194Z,70.04
2018-09-11T06:57:33.156Z,70.23
2018-09-11T06:58:33.160Z,70.42
2018-09-11T06:59:33.160Z,69.88
2018-09-11T07:00:33.170Z,69.98
2018-09-11T07:01:33.213Z,70.65
2018-09-11T07:02:33.182Z,69.43
2018-09-11T07:03:33.182Z,69.33
2018-09-11T07:04:33.212Z,69.24
2018-09-11T07:05:33.198Z,68.69
2018-09-11T07:06:33.237Z,67.53
2018-09-11T07:07:33.208Z,67.33
2018-09-11T07:08:33.272Z,67.63
2018-09-11T07:09:33.225Z,67.14
2018-09-11T07:10:33.228Z,67.24
2018-09-11T07:11:33.278Z,67.43
2018-09-11T07:12:33.233Z,66.17
2018-09-11T07:13:33.242Z,66.56
2018-09-11T07:14:33.265Z,66.75
2018-09-11T07:15:33.278Z,66.08
2018-09-11T07:16:33.295Z,65.85
2018-09-11T07:17:33.267Z,66.53
2018-09-11T07:18:33.275Z,66.59
2018-09-11T07:19:33.333Z,67.27
2018-09-11T07:20:33.319Z,68.14
2018-09-11T07:21:33.293Z,69.24
2018-09-11T07:22:34.033Z,67.91
2018-09-11T07:23:33.308Z,67.85
2018-09-11T07:24:33.308Z,67.05
2018-09-11T07:25:33.321Z,66.78
2018-09-11T07:26:33.325Z,66.88
2018-09-11T07:27:33.366Z,66.82
2018-09-11T07:28:33.339Z,66.72
2018-09-11T07:29:33.342Z,66.34
2018-09-11T07:30:33.349Z,65.30
2018-09-11T07:31:33.362Z,65.01
2018-09-11T07:32:33.466Z,64.82
2018-09-11T07:33:33.374Z,64.53
2018-09-11T07:34:33.386Z,64.14
2018-09-11T07:35:33.388Z,64.72
2018-09-11T07:36:33.446Z,64.43
2018-09-11T07:37:33.404Z,63.27
2018-09-11T07:38:33.426Z,62.75
2018-09-11T07:39:33.422Z,64.07
2018-09-11T07:40:33.432Z,65.34
2018-09-11T07:41:33.472Z,64.75
2018-09-11T07:42:33.445Z,65.53
2018-09-11T07:43:33.455Z,63.56
2018-09-11T07:44:33.460Z,64.53
2018-09-11T07:45:33.587Z,64.85
2018-09-11T07:46:33.477Z,64.66
2018-09-11T07:47:33.540Z,65.14
2018-09-11T07:48:33.497Z,65.05
2018-09-11T07:49:33.512Z,64.89
2018-09-11T07:50:33.553Z,62.82
2018-09-11T07:51:33.530Z,63.01
2018-09-11T07:52:33.545Z,63.21
2018-09-11T07:53:33.581Z,63.72
2018-09-11T07:54:33.562Z,62.56
2018-09-11T07:55:33.558Z,63.53
2018-09-11T07:56:33.566Z,63.53
2018-09-11T07:57:33.621Z,61.69
2018-09-11T07:58:33.916Z,62.11
2018-09-11T07:59:33.595Z,63.27
2018-09-11T08:00:33.600Z,63.01
2018-09-11T08:01:33.606Z,63.66
2018-09-11T08:02:33.664Z,63.59
2018-09-11T08:03:33.628Z,62.85
2018-09-11T08:04:33.664Z,61.85
2018-09-11T08:05:33.657Z,62.37
2018-09-11T08:06:33.701Z,62.63
2018-09-11T08:07:33.662Z,63.59
2018-09-11T08:08:33.712Z,62.63
2018-09-11T08:09:33.699Z,63.49
2018-09-11T08:10:33.699Z,63.59
2018-09-11T08:11:33.711Z,63.79
2018-09-11T08:12:33.717Z,62.46
2018-09-11T08:13:33.761Z,61.95
2018-09-11T08:14:33.730Z,62.98
2018-09-11T08:15:33.737Z,62.98
2018-09-11T08:16:33.787Z,63.66
2018-09-11T08:17:33.754Z,63.56
2018-09-11T08:18:33.807Z,62.98
2018-09-11T08:19:33.779Z,63.82
2018-09-11T08:20:33.784Z,64.89
2018-09-11T08:21:33.798Z,63.98
2018-09-11T08:22:33.805Z,63.11
2018-09-11T08:23:33.862Z,63.89
2018-09-11T08:24:33.820Z,63.59
2018-09-11T08:25:33.827Z,63.27
2018-09-11T08:26:33.847Z,63.76
2018-09-11T08:27:33.872Z,63.59
2018-09-11T08:28:33.898Z,63.11
2018-09-11T08:29:33.879Z,63.21
2018-09-11T08:30:33.889Z,62.07
2018-09-11T08:31:33.888Z,62.27
2018-09-11T08:32:33.913Z,62.79
2018-09-11T08:33:33.952Z,61.91
2018-09-11T08:34:33.938Z,61.62
2018-09-11T08:35:33.933Z,60.75
2018-09-11T08:36:33.977Z,60.88
2018-09-11T08:37:33.950Z,59.81
2018-09-11T08:38:33.983Z,59.69
2018-09-11T08:39:34.014Z,60.17
2018-09-11T08:40:33.981Z,59.88
2018-09-11T08:41:34.007Z,60.55
2018-09-11T08:42:34.008Z,59.33
2018-09-11T08:43:34.020Z,60.24
2018-09-11T08:44:34.060Z,60.82
2018-09-11T08:45:34.053Z,60.85
2018-09-11T08:46:34.084Z,61.07
2018-09-11T08:47:34.064Z,60.58
2018-09-11T08:48:34.073Z,60.30
2018-09-11T08:49:34.137Z,60.88
2018-09-11T08:50:34.095Z,59.81
2018-09-11T08:51:34.109Z,59.30
2018-09-11T08:52:34.212Z,60.94
2018-09-11T08:53:34.132Z,60.17
2018-09-11T08:54:34.174Z,60.17
2018-09-11T08:55:34.173Z,59.69
2018-09-11T08:56:34.214Z,61.21
2018-09-11T08:57:34.182Z,60.52
2018-09-11T08:58:34.224Z,61.40
2018-09-11T08:59:34.199Z,60.65
2018-09-11T09:00:34.267Z,59.69
2018-09-11T09:01:34.219Z,60.85
2018-09-11T09:02:34.235Z,60.68
2018-09-11T09:03:34.243Z,59.39
2018-09-11T09:04:34.265Z,60.07
2018-09-11T09:05:34.312Z,60.17
2018-09-11T09:06:34.280Z,60.04
2018-09-11T09:07:34.291Z,61.04
2018-09-11T09:08:34.307Z,60.58
2018-09-11T09:09:34.319Z,58.84
2018-09-11T09:10:34.440Z,58.61
2018-09-11T09:11:34.341Z,56.76
2018-09-11T09:12:34.356Z,56.37
2018-09-11T09:13:34.365Z,55.89
2018-09-11T09:14:34.377Z,56.79
2018-09-11T09:15:34.453Z,56.15
2018-09-11T09:16:34.401Z,56.86
2018-09-11T09:17:34.414Z,56.09
2018-09-11T09:18:34.430Z,56.18
2018-09-11T09:19:34.437Z,56.40
2018-09-11T09:20:34.486Z,54.94
2018-09-11T09:21:34.470Z,54.17
2018-09-11T09:22:34.484Z,54.17
2018-09-11T09:23:34.507Z,54.14
2018-09-11T09:24:38.035Z,54.58
2018-09-11T09:25:35.875Z,55.44
2018-09-11T09:26:35.792Z,56.23
2018-09-11T09:27:35.361Z,56.05
2018-09-11T09:28:34.770Z,55.69
2018-09-11T09:29:34.667Z,55.79
2018-09-11T09:30:34.761Z,54.56
2018-09-11T09:31:35.468Z,54.66
2018-09-11T09:32:34.891Z,53.85
2018-09-11T09:33:36.540Z,54.82
2018-09-11T09:34:34.682Z,54.92
2018-09-11T09:35:34.812Z,54.48
2018-09-11T09:36:34.862Z,55.83
2018-09-11T09:37:35.087Z,55.06
2018-09-11T09:38:34.825Z,54.74
2018-09-11T09:39:35.332Z,54.38
2018-09-11T09:40:35.198Z,54.60
2018-09-11T09:41:35.457Z,54.92
2018-09-11T09:42:35.082Z,54.66
2018-09-11T09:43:34.969Z,54.46
2018-09-11T09:44:35.034Z,53.17
2018-09-11T09:45:34.843Z,53.27
2018-09-11T09:46:34.922Z,52.33
2018-09-11T09:47:39.546Z,52.72
2018-09-11T09:48:37.690Z,51.84
2018-09-11T09:49:35.592Z,52.52
2018-09-11T09:50:37.048Z,52.50
2018-09-11T09:51:38.061Z,52.50
2018-09-11T09:52:41.047Z,52.47
2018-09-11T09:53:34.896Z,52.20
2018-09-11T09:54:35.261Z,52.50
2018-09-11T09:55:35.909Z,52.50
2018-09-11T09:56:34.937Z,51.14
2018-09-11T09:57:34.949Z,51.65
2018-09-11T09:58:35.003Z,51.16
2018-09-11T09:59:34.972Z,50.48
2018-09-11T10:00:34.988Z,50.77
2018-09-11T10:01:35.034Z,50.84
2018-09-11T10:02:35.009Z,50.94
2018-09-11T10:03:35.029Z,51.79
2018-09-11T10:04:35.047Z,51.96
2018-09-11T10:05:35.056Z,51.98
2018-09-11T10:06:35.131Z,51.98
2018-09-11T10:07:35.090Z,52.01
2018-09-11T10:08:35.099Z,51.23
2018-09-11T10:09:35.115Z,51.45
2018-09-11T10:10:35.124Z,51.70
2018-09-11T10:11:35.246Z,50.63
2018-09-11T10:12:35.146Z,50.07
2018-09-11T10:13:35.159Z,49.58
2018-09-11T10:14:35.179Z,49.92
2018-09-11T10:15:35.203Z,49.63
2018-09-11T10:16:35.256Z,50.02
2018-09-11T10:17:35.267Z,49.34
2018-09-11T10:18:35.241Z,49.44
2018-09-11T10:19:35.251Z,49.34
2018-09-11T10:20:35.265Z,49.56
2018-09-11T10:21:35.316Z,49.46
2018-09-11T10:22:35.318Z,50.63
2018-09-11T10:23:35.310Z,50.12
2018-09-11T10:24:35.328Z,51.16
2018-09-11T10:25:35.376Z,50.99
2018-09-11T10:26:35.361Z,50.70
2018-09-11T10:27:35.410Z,50.92
2018-09-11T10:28:35.392Z,50.92
2018-09-11T10:29:35.385Z,49.56
2018-09-11T10:30:35.461Z,49.76
2018-09-11T10:31:35.418Z,50.26
2018-09-11T10:32:35.446Z,48.90
2018-09-11T10:33:35.495Z,49.95
2018-09-11T10:34:35.479Z,50.96
2018-09-11T10:35:35.466Z,51.16
2018-09-11T10:36:35.544Z,51.11
2018-09-11T10:37:35.506Z,51.01
2018-09-11T10:38:35.514Z,51.69
2018-09-11T10:39:35.535Z,51.14
2018-09-11T10:40:35.535Z,50.74
2018-09-11T10:41:35.587Z,50.82
2018-09-11T10:42:35.562Z,51.69
2018-09-11T10:43:35.593Z,50.72
2018-09-11T10:44:35.581Z,50.65
2018-09-11T10:45:35.590Z,51.01
2018-09-11T10:46:35.648Z,51.81
2018-09-11T10:47:35.613Z,51.81
2018-09-11T10:48:35.621Z,51.89
2018-09-11T10:49:35.630Z,51.91
2018-09-11T10:50:35.671Z,50.65
2018-09-11T10:51:35.687Z,51.62
2018-09-11T10:52:35.670Z,51.72
2018-09-11T10:53:35.721Z,50.94
2018-09-11T10:54:35.685Z,51.45
2018-09-11T10:55:35.747Z,51.35
2018-09-11T10:56:35.732Z,51.33
2018-09-11T10:57:35.779Z,51.93
2018-09-11T10:58:35.744Z,51.91
2018-09-11T10:59:35.745Z,52.50
2018-09-11T11:00:35.756Z,52.59
2018-09-11T11:01:35.767Z,52.59
2018-09-11T11:02:35.810Z,52.30
2018-09-11T11:03:35.783Z,51.59
2018-09-11T11:04:35.793Z,51.67
2018-09-11T11:05:35.823Z,50.89
2018-09-11T11:06:35.820Z,51.57
2018-09-11T11:07:35.880Z,51.59
2018-09-11T11:08:35.853Z,51.01
2018-09-11T11:09:35.848Z,50.84
2018-09-11T11:10:36.703Z,50.96
2018-09-11T11:11:35.871Z,50.77
2018-09-11T11:12:35.929Z,49.02
2018-09-11T11:13:35.889Z,47.76
2018-09-11T11:14:35.896Z,47.08
2018-09-11T11:15:35.904Z,46.01
2018-09-11T11:16:35.982Z,44.75
2018-09-11T11:17:35.934Z,44.56
2018-09-11T11:18:35.938Z,45.53
2018-09-11T11:19:35.998Z,45.75
2018-09-11T11:20:35.967Z,45.17
2018-09-11T11:21:35.977Z,45.14
2018-09-11T11:22:36.032Z,45.75
2018-09-11T11:23:36.007Z,45.14
2018-09-11T11:24:36.019Z,45.14
2018-09-11T11:25:36.021Z,44.60
2018-09-11T11:26:36.069Z,44.31
2018-09-11T11:27:36.045Z,45.28
2018-09-11T11:28:36.093Z,43.44
2018-09-11T11:29:36.072Z,42.95
2018-09-11T11:30:36.244Z,43.16
2018-09-11T11:31:36.096Z,42.60
2018-09-11T11:32:36.138Z,43.58
2018-09-11T11:33:36.118Z,43.19
2018-09-11T11:34:36.132Z,42.90
2018-09-11T11:35:36.142Z,43.75
2018-09-11T11:36:36.302Z,43.85
2018-09-11T11:37:36.202Z,44.16
2018-09-11T11:38:36.186Z,42.19
2018-09-11T11:39:36.189Z,42.58
2018-09-11T11:40:36.202Z,42.58
2018-09-11T11:41:36.235Z,42.68
2018-09-11T11:42:36.291Z,42.00
2018-09-11T11:43:36.247Z,42.02
2018-09-11T11:44:36.255Z,40.85
2018-09-11T11:45:36.268Z,40.83
2018-09-11T11:46:36.281Z,41.73
2018-09-11T11:47:36.330Z,41.73
2018-09-11T11:48:36.313Z,41.55
2018-09-11T11:49:36.316Z,41.26
2018-09-11T11:50:36.332Z,41.94
2018-09-11T11:51:36.385Z,41.16
2018-09-11T11:52:36.366Z,40.78
2018-09-11T11:53:36.376Z,41.11
2018-09-11T11:54:36.426Z,39.86
2018-09-11T11:55:36.400Z,37.04
2018-09-11T11:56:36.418Z,37.50
2018-09-11T11:57:36.467Z,37.41
2018-09-11T11:58:36.451Z,37.77
2018-09-11T11:59:36.455Z,37.58
2018-09-11T12:00:36.467Z,38.26
2018-09-11T12:01:36.617Z,39.34
2018-09-11T12:02:36.543Z,38.56
2018-09-11T12:03:36.524Z,37.97
2018-09-11T12:04:36.525Z,39.26
2018-09-11T12:05:36.547Z,39.04
2018-09-11T12:06:36.559Z,39.04
2018-09-11T12:07:36.681Z,39.82
2018-09-11T12:08:36.585Z,39.94
2018-09-11T12:09:36.607Z,40.13
2018-09-11T12:10:36.613Z,39.94
2018-09-11T12:11:36.650Z,40.33
2018-09-11T12:12:36.681Z,39.75
2018-09-11T12:13:36.665Z,40.23
2018-09-11T12:14:36.670Z,39.67
2018-09-11T12:15:36.683Z,39.75
2018-09-11T12:16:36.702Z,40.80
2018-09-11T12:17:36.746Z,41.06
2018-09-11T12:18:36.725Z,40.21
2018-09-11T12:19:36.736Z,39.61
2018-09-11T12:20:36.756Z,39.51
2018-09-11T12:21:37.719Z,39.49
2018-09-11T12:22:36.833Z,39.88
2018-09-11T12:23:36.795Z,40.27
2018-09-11T12:24:36.813Z,40.08
2018-09-11T12:25:36.860Z,40.34
2018-09-11T12:26:36.863Z,40.56
2018-09-11T12:27:36.882Z,39.69
2018-09-11T12:28:36.867Z,39.49
2018-09-11T12:29:36.890Z,40.64
2018-09-11T12:30:36.882Z,41.03
2018-09-11T12:31:36.897Z,40.62
2018-09-11T12:32:36.946Z,41.22
2018-09-11T12:33:36.935Z,41.73
2018-09-11T12:34:36.979Z,41.36
2018-09-11T12:35:36.951Z,41.06
2018-09-11T12:36:36.963Z,41.55
2018-09-11T12:37:36.997Z,41.26
2018-09-11T12:38:37.538Z,42.14
2018-09-11T12:39:37.004Z,40.95
2018-09-11T12:40:37.050Z,41.06
2018-09-11T12:41:40.179Z,41.44
2018-09-11T12:42:37.081Z,41.65
2018-09-11T12:43:37.051Z,41.85
2018-09-11T12:44:37.089Z,41.63
2018-09-11T12:45:37.096Z,42.14
2018-09-11T12:46:37.487Z,41.93
2018-09-11T12:47:37.515Z,42.02
2018-09-11T12:48:37.250Z,41.83
2018-09-11T12:49:37.132Z,41.94
2018-09-11T12:50:37.146Z,41.46
2018-09-11T12:51:37.163Z,41.86
2018-09-11T12:52:37.243Z,41.16